sensor_id;sensor_type;location;lat;lon;timestamp;pressure;altitude;pressure_sealevel;temperature;humidity
45040;BME280;30778;53.574;7.770;2023-05-23T00:00:20;101422.22;;;11.28;58.70
45040;BME280;30778;53.574;7.770;2023-05-23T00:02:45;101424.44;;;11.64;57.49
45040;BME280;30778;53.574;7.770;2023-05-23T00:05:11;101422.63;;;11.66;57.51
45040;BME280;30778;53.574;7.770;2023-05-23T00:07:36;101421.53;;;11.73;57.34
45040;BME280;30778;53.574;7.770;2023-05-23T00:10:02;101414.44;;;11.75;57.11
45040;BME280;30778;53.574;7.770;2023-05-23T00:12:28;101418.34;;;11.63;57.32
45040;BME280;30778;53.574;7.770;2023-05-23T00:14:54;101420.09;;;11.64;57.42
45040;BME280;30778;53.574;7.770;2023-05-23T00:17:19;101426.34;;;11.85;56.87
45040;BME280;30778;53.574;7.770;2023-05-23T00:19:46;101419.69;;;11.50;57.84
45040;BME280;30778;53.574;7.770;2023-05-23T00:22:11;101418.44;;;11.87;57.00
45040;BME280;30778;53.574;7.770;2023-05-23T00:24:37;101422.28;;;11.75;57.16
45040;BME280;30778;53.574;7.770;2023-05-23T00:27:03;101430.47;;;11.66;57.46
45040;BME280;30778;53.574;7.770;2023-05-23T00:29:28;101436.53;;;11.68;57.44
45040;BME280;30778;53.574;7.770;2023-05-23T00:31:54;101433.91;;;11.68;57.48
45040;BME280;30778;53.574;7.770;2023-05-23T00:34:19;101434.78;;;11.43;57.92
45040;BME280;30778;53.574;7.770;2023-05-23T00:36:45;101430.72;;;11.60;57.50
45040;BME280;30778;53.574;7.770;2023-05-23T00:39:15;101436.41;;;11.46;57.84
45040;BME280;30778;53.574;7.770;2023-05-23T00:41:47;101448.00;;;11.64;57.65
45040;BME280;30778;53.574;7.770;2023-05-23T00:44:13;101450.88;;;11.58;57.85
45040;BME280;30778;53.574;7.770;2023-05-23T00:46:39;101452.81;;;11.76;57.17
45040;BME280;30778;53.574;7.770;2023-05-23T00:49:05;101447.56;;;11.78;57.24
45040;BME280;30778;53.574;7.770;2023-05-23T00:51:32;101453.06;;;11.68;57.22
45040;BME280;30778;53.574;7.770;2023-05-23T00:53:59;101444.56;;;11.38;58.07
45040;BME280;30778;53.574;7.770;2023-05-23T00:56:25;101442.28;;;11.53;57.84
45040;BME280;30778;53.574;7.770;2023-05-23T00:58:53;101434.97;;;11.37;58.15
45040;BME280;30778;53.574;7.770;2023-05-23T01:01:18;101441.13;;;11.36;58.19
45040;BME280;30778;53.574;7.770;2023-05-23T01:03:44;101439.78;;;11.24;58.08
45040;BME280;30778;53.574;7.770;2023-05-23T01:06:13;101436.84;;;11.59;57.58
45040;BME280;30778;53.574;7.770;2023-05-23T01:08:39;101437.06;;;11.53;57.48
45040;BME280;30778;53.574;7.770;2023-05-23T01:11:13;101441.28;;;11.57;57.87
45040;BME280;30778;53.574;7.770;2023-05-23T01:13:58;101451.75;;;11.32;58.45
45040;BME280;30778;53.574;7.770;2023-05-23T01:16:50;101443.75;;;11.61;58.03
45040;BME280;30778;53.574;7.770;2023-05-23T01:21:54;101438.38;;;11.14;59.08
45040;BME280;30778;53.574;7.770;2023-05-23T01:29:47;101434.72;;;10.93;59.66
45040;BME280;30778;53.574;7.770;2023-05-23T01:32:17;101430.72;;;10.81;60.22
45040;BME280;30778;53.574;7.770;2023-05-23T01:34:44;101437.53;;;11.14;59.49
45040;BME280;30778;53.574;7.770;2023-05-23T01:37:10;101437.06;;;11.01;59.48
45040;BME280;30778;53.574;7.770;2023-05-23T01:39:38;101435.44;;;11.23;58.82
45040;BME280;30778;53.574;7.770;2023-05-23T01:42:04;101428.00;;;10.86;59.60
45040;BME280;30778;53.574;7.770;2023-05-23T01:44:32;101429.56;;;11.17;58.95
45040;BME280;30778;53.574;7.770;2023-05-23T01:46:59;101436.28;;;10.99;59.49
45040;BME280;30778;53.574;7.770;2023-05-23T01:49:25;101424.81;;;11.28;58.48
45040;BME280;30778;53.574;7.770;2023-05-23T01:51:51;101438.50;;;11.36;58.51
45040;BME280;30778;53.574;7.770;2023-05-23T01:54:17;101453.38;;;10.82;60.02
45040;BME280;30778;53.574;7.770;2023-05-23T01:56:44;101448.50;;;10.98;59.36
45040;BME280;30778;53.574;7.770;2023-05-23T01:59:10;101453.88;;;11.20;58.91
45040;BME280;30778;53.574;7.770;2023-05-23T02:01:37;101463.00;;;11.09;59.24
45040;BME280;30778;53.574;7.770;2023-05-23T02:04:03;101457.22;;;11.24;58.80
45040;BME280;30778;53.574;7.770;2023-05-23T02:06:29;101458.34;;;11.17;58.95
45040;BME280;30778;53.574;7.770;2023-05-23T02:08:56;101465.63;;;11.09;58.94
45040;BME280;30778;53.574;7.770;2023-05-23T02:11:22;101466.81;;;11.25;58.65
45040;BME280;30778;53.574;7.770;2023-05-23T02:13:48;101472.66;;;10.77;59.82
45040;BME280;30778;53.574;7.770;2023-05-23T02:16:14;101474.13;;;10.87;59.57
45040;BME280;30778;53.574;7.770;2023-05-23T02:18:40;101472.66;;;11.07;58.88
45040;BME280;30778;53.574;7.770;2023-05-23T02:21:05;101476.31;;;10.73;60.06
45040;BME280;30778;53.574;7.770;2023-05-23T02:23:31;101489.25;;;10.77;59.53
45040;BME280;30778;53.574;7.770;2023-05-23T02:25:56;101486.22;;;10.61;59.87
45040;BME280;30778;53.574;7.770;2023-05-23T02:28:21;101482.38;;;10.45;60.09
45040;BME280;30778;53.574;7.770;2023-05-23T02:30:48;101498.44;;;10.01;61.39
45040;BME280;30778;53.574;7.770;2023-05-23T02:33:13;101500.09;;;10.35;60.60
45040;BME280;30778;53.574;7.770;2023-05-23T02:35:40;101498.88;;;9.85;61.75
45040;BME280;30778;53.574;7.770;2023-05-23T02:38:08;101500.25;;;10.29;60.78
45040;BME280;30778;53.574;7.770;2023-05-23T02:40:34;101512.09;;;10.11;60.88
45040;BME280;30778;53.574;7.770;2023-05-23T02:43:00;101507.50;;;10.19;60.68
45040;BME280;30778;53.574;7.770;2023-05-23T02:45:25;101523.38;;;10.12;60.74
45040;BME280;30778;53.574;7.770;2023-05-23T02:47:51;101513.19;;;10.34;60.22
45040;BME280;30778;53.574;7.770;2023-05-23T02:50:16;101516.38;;;10.12;60.54
45040;BME280;30778;53.574;7.770;2023-05-23T02:52:42;101516.97;;;10.24;60.39
45040;BME280;30778;53.574;7.770;2023-05-23T02:55:08;101523.91;;;10.25;60.21
45040;BME280;30778;53.574;7.770;2023-05-23T02:57:39;101520.16;;;10.33;60.12
45040;BME280;30778;53.574;7.770;2023-05-23T03:00:06;101523.53;;;10.37;59.95
45040;BME280;30778;53.574;7.770;2023-05-23T03:02:32;101518.09;;;10.15;60.32
45040;BME280;30778;53.574;7.770;2023-05-23T03:04:58;101527.47;;;9.89;61.76
45040;BME280;30778;53.574;7.770;2023-05-23T03:07:23;101537.66;;;9.64;62.22
45040;BME280;30778;53.574;7.770;2023-05-23T03:09:50;101536.03;;;10.26;60.05
45040;BME280;30778;53.574;7.770;2023-05-23T03:12:16;101531.50;;;10.01;61.15
45040;BME280;30778;53.574;7.770;2023-05-23T03:14:41;101540.56;;;9.88;61.42
45040;BME280;30778;53.574;7.770;2023-05-23T03:17:07;101547.50;;;9.89;61.78
45040;BME280;30778;53.574;7.770;2023-05-23T03:19:33;101544.53;;;9.68;62.01
45040;BME280;30778;53.574;7.770;2023-05-23T03:21:58;101545.16;;;9.79;62.15
45040;BME280;30778;53.574;7.770;2023-05-23T03:24:24;101545.50;;;9.64;62.30
45040;BME280;30778;53.574;7.770;2023-05-23T03:26:50;101540.78;;;9.78;61.63
45040;BME280;30778;53.574;7.770;2023-05-23T03:29:16;101548.00;;;9.33;63.15
45040;BME280;30778;53.574;7.770;2023-05-23T03:31:42;101557.66;;;9.65;62.45
45040;BME280;30778;53.574;7.770;2023-05-23T03:34:07;101558.09;;;9.48;62.63
45040;BME280;30778;53.574;7.770;2023-05-23T03:36:33;101558.16;;;9.08;63.39
45040;BME280;30778;53.574;7.770;2023-05-23T03:38:59;101569.59;;;9.39;62.55
45040;BME280;30778;53.574;7.770;2023-05-23T03:41:25;101571.66;;;9.25;63.13
45040;BME280;30778;53.574;7.770;2023-05-23T03:43:51;101573.00;;;9.06;63.14
45040;BME280;30778;53.574;7.770;2023-05-23T03:46:17;101565.81;;;9.14;62.79
45040;BME280;30778;53.574;7.770;2023-05-23T03:48:43;101580.38;;;9.24;62.69
45040;BME280;30778;53.574;7.770;2023-05-23T03:51:08;101588.94;;;9.29;62.31
45040;BME280;30778;53.574;7.770;2023-05-23T03:53:35;101585.09;;;9.08;62.75
45040;BME280;30778;53.574;7.770;2023-05-23T03:56:00;101588.25;;;8.82;63.61
45040;BME280;30778;53.574;7.770;2023-05-23T03:58:26;101588.88;;;8.95;63.03
45040;BME280;30778;53.574;7.770;2023-05-23T04:00:56;101603.88;;;8.84;63.39
45040;BME280;30778;53.574;7.770;2023-05-23T04:03:22;101607.41;;;8.81;63.32
45040;BME280;30778;53.574;7.770;2023-05-23T04:05:49;101602.13;;;8.84;62.91
45040;BME280;30778;53.574;7.770;2023-05-23T04:08:14;101610.59;;;8.94;62.89
45040;BME280;30778;53.574;7.770;2023-05-23T04:10:40;101612.56;;;8.84;62.86
45040;BME280;30778;53.574;7.770;2023-05-23T04:13:06;101616.31;;;8.71;63.34
45040;BME280;30778;53.574;7.770;2023-05-23T04:15:31;101620.38;;;8.84;62.72
45040;BME280;30778;53.574;7.770;2023-05-23T04:18:04;101619.34;;;8.48;64.12
45040;BME280;30778;53.574;7.770;2023-05-23T04:20:32;101626.88;;;8.62;63.50
45040;BME280;30778;53.574;7.770;2023-05-23T04:22:58;101627.78;;;9.03;61.84
45040;BME280;30778;53.574;7.770;2023-05-23T04:25:24;101625.19;;;8.61;62.68
45040;BME280;30778;53.574;7.770;2023-05-23T04:28:08;101624.75;;;8.82;62.11
45040;BME280;30778;53.574;7.770;2023-05-23T04:30:35;101631.00;;;8.73;62.29
45040;BME280;30778;53.574;7.770;2023-05-23T04:33:01;101643.25;;;8.68;62.36
45040;BME280;30778;53.574;7.770;2023-05-23T04:35:27;101643.34;;;8.65;62.32
45040;BME280;30778;53.574;7.770;2023-05-23T04:37:56;101650.34;;;8.60;62.34
45040;BME280;30778;53.574;7.770;2023-05-23T04:40:23;101644.31;;;8.11;63.77
45040;BME280;30778;53.574;7.770;2023-05-23T04:43:07;101645.78;;;8.74;61.82
45040;BME280;30778;53.574;7.770;2023-05-23T04:45:46;101652.44;;;8.43;62.60
45040;BME280;30778;53.574;7.770;2023-05-23T04:48:32;101664.78;;;8.31;63.05
45040;BME280;30778;53.574;7.770;2023-05-23T04:51:00;101663.19;;;8.74;61.46
45040;BME280;30778;53.574;7.770;2023-05-23T04:53:30;101671.19;;;8.60;61.73
45040;BME280;30778;53.574;7.770;2023-05-23T04:55:56;101667.75;;;8.60;62.17
45040;BME280;30778;53.574;7.770;2023-05-23T04:58:22;101677.13;;;8.68;61.41
45040;BME280;30778;53.574;7.770;2023-05-23T05:00:48;101666.28;;;8.91;60.76
45040;BME280;30778;53.574;7.770;2023-05-23T05:03:15;101662.31;;;9.14;59.71
45040;BME280;30778;53.574;7.770;2023-05-23T05:05:44;101663.03;;;8.80;60.70
45040;BME280;30778;53.574;7.770;2023-05-23T05:08:10;101675.13;;;8.84;60.27
45040;BME280;30778;53.574;7.770;2023-05-23T05:10:39;101678.66;;;8.82;60.12
45040;BME280;30778;53.574;7.770;2023-05-23T05:13:05;101690.69;;;8.87;60.21
45040;BME280;30778;53.574;7.770;2023-05-23T05:15:39;101691.78;;;8.75;60.66
45040;BME280;30778;53.574;7.770;2023-05-23T05:18:05;101697.59;;;8.43;61.58
45040;BME280;30778;53.574;7.770;2023-05-23T05:20:30;101699.91;;;8.59;61.12
45040;BME280;30778;53.574;7.770;2023-05-23T05:22:59;101710.88;;;8.77;60.97
45040;BME280;30778;53.574;7.770;2023-05-23T05:25:24;101705.91;;;8.62;61.58
45040;BME280;30778;53.574;7.770;2023-05-23T05:27:51;101713.38;;;8.34;61.88
45040;BME280;30778;53.574;7.770;2023-05-23T05:30:18;101713.91;;;8.51;61.81
45040;BME280;30778;53.574;7.770;2023-05-23T05:32:56;101722.81;;;8.41;62.60
45040;BME280;30778;53.574;7.770;2023-05-23T05:35:22;101733.31;;;8.35;62.47
45040;BME280;30778;53.574;7.770;2023-05-23T05:37:48;101740.78;;;8.55;61.65
45040;BME280;30778;53.574;7.770;2023-05-23T05:40:13;101739.88;;;8.56;61.85
45040;BME280;30778;53.574;7.770;2023-05-23T05:42:41;101738.75;;;8.23;62.07
45040;BME280;30778;53.574;7.770;2023-05-23T05:45:08;101745.28;;;7.92;63.19
45040;BME280;30778;53.574;7.770;2023-05-23T05:47:35;101747.59;;;8.12;61.81
45040;BME280;30778;53.574;7.770;2023-05-23T05:50:01;101762.38;;;8.62;60.54
45040;BME280;30778;53.574;7.770;2023-05-23T05:52:28;101763.59;;;8.42;60.59
45040;BME280;30778;53.574;7.770;2023-05-23T05:54:54;101771.09;;;8.08;61.70
45040;BME280;30778;53.574;7.770;2023-05-23T05:57:19;101768.34;;;8.15;61.28
45040;BME280;30778;53.574;7.770;2023-05-23T05:59:44;101776.72;;;8.36;60.96
45040;BME280;30778;53.574;7.770;2023-05-23T06:02:10;101772.81;;;8.62;60.22
45040;BME280;30778;53.574;7.770;2023-05-23T06:04:36;101780.44;;;8.20;61.00
45040;BME280;30778;53.574;7.770;2023-05-23T06:07:02;101789.00;;;8.28;60.58
45040;BME280;30778;53.574;7.770;2023-05-23T06:09:28;101781.41;;;8.14;60.98
45040;BME280;30778;53.574;7.770;2023-05-23T06:11:55;101784.63;;;8.30;60.10
45040;BME280;30778;53.574;7.770;2023-05-23T06:14:21;101798.94;;;8.59;59.55
45040;BME280;30778;53.574;7.770;2023-05-23T06:16:47;101795.50;;;8.56;59.48
45040;BME280;30778;53.574;7.770;2023-05-23T06:19:13;101799.03;;;7.95;61.30
45040;BME280;30778;53.574;7.770;2023-05-23T06:21:39;101798.81;;;8.09;60.68
45040;BME280;30778;53.574;7.770;2023-05-23T06:24:07;101792.38;;;8.36;59.77
45040;BME280;30778;53.574;7.770;2023-05-23T06:26:33;101811.78;;;8.13;60.41
45040;BME280;30778;53.574;7.770;2023-05-23T06:28:58;101818.53;;;8.27;59.89
45040;BME280;30778;53.574;7.770;2023-05-23T06:31:24;101808.31;;;8.14;60.02
45040;BME280;30778;53.574;7.770;2023-05-23T06:33:49;101821.53;;;7.99;60.22
45040;BME280;30778;53.574;7.770;2023-05-23T06:36:16;101829.19;;;8.11;59.47
45040;BME280;30778;53.574;7.770;2023-05-23T06:38:41;101825.81;;;8.05;59.17
45040;BME280;30778;53.574;7.770;2023-05-23T06:41:07;101832.81;;;8.00;59.55
45040;BME280;30778;53.574;7.770;2023-05-23T06:43:33;101836.00;;;8.20;58.78
45040;BME280;30778;53.574;7.770;2023-05-23T06:46:12;101838.63;;;8.76;57.49
45040;BME280;30778;53.574;7.770;2023-05-23T06:48:37;101840.75;;;8.51;57.30
45040;BME280;30778;53.574;7.770;2023-05-23T06:51:03;101850.59;;;8.30;57.97
45040;BME280;30778;53.574;7.770;2023-05-23T06:53:28;101850.69;;;8.24;57.62
45040;BME280;30778;53.574;7.770;2023-05-23T06:55:54;101852.38;;;8.28;57.35
45040;BME280;30778;53.574;7.770;2023-05-23T06:58:21;101857.03;;;8.06;57.43
45040;BME280;30778;53.574;7.770;2023-05-23T07:00:49;101865.72;;;8.05;56.81
45040;BME280;30778;53.574;7.770;2023-05-23T07:03:22;101870.94;;;8.05;56.24
45040;BME280;30778;53.574;7.770;2023-05-23T07:05:48;101873.00;;;7.79;56.60
45040;BME280;30778;53.574;7.770;2023-05-23T07:08:16;101877.59;;;8.25;55.98
45040;BME280;30778;53.574;7.770;2023-05-23T07:10:53;101867.53;;;8.61;54.82
45040;BME280;30778;53.574;7.770;2023-05-23T07:13:26;101873.47;;;8.72;55.15
45040;BME280;30778;53.574;7.770;2023-05-23T07:15:52;101881.00;;;8.30;56.37
45040;BME280;30778;53.574;7.770;2023-05-23T07:18:19;101880.44;;;8.06;56.68
45040;BME280;30778;53.574;7.770;2023-05-23T07:20:44;101890.66;;;8.23;56.02
45040;BME280;30778;53.574;7.770;2023-05-23T07:23:14;101889.38;;;8.52;55.33
45040;BME280;30778;53.574;7.770;2023-05-23T07:25:40;101886.56;;;8.64;54.42
45040;BME280;30778;53.574;7.770;2023-05-23T07:28:11;101897.38;;;8.38;54.06
45040;BME280;30778;53.574;7.770;2023-05-23T07:30:37;101900.78;;;8.43;54.06
45040;BME280;30778;53.574;7.770;2023-05-23T07:33:03;101890.25;;;8.51;53.47
45040;BME280;30778;53.574;7.770;2023-05-23T07:35:31;101906.28;;;8.22;53.42
45040;BME280;30778;53.574;7.770;2023-05-23T07:37:58;101915.03;;;8.18;53.66
45040;BME280;30778;53.574;7.770;2023-05-23T07:40:23;101918.13;;;8.44;52.59
45040;BME280;30778;53.574;7.770;2023-05-23T07:42:49;101913.25;;;8.20;52.82
45040;BME280;30778;53.574;7.770;2023-05-23T07:45:14;101933.25;;;8.18;52.63
45040;BME280;30778;53.574;7.770;2023-05-23T07:47:42;101925.66;;;8.64;51.24
45040;BME280;30778;53.574;7.770;2023-05-23T07:50:08;101940.34;;;8.70;50.97
45040;BME280;30778;53.574;7.770;2023-05-23T07:52:34;101931.88;;;8.55;50.70
45040;BME280;30778;53.574;7.770;2023-05-23T07:55:03;101925.63;;;9.22;50.21
45040;BME280;30778;53.574;7.770;2023-05-23T07:57:29;101943.53;;;8.30;51.64
45040;BME280;30778;53.574;7.770;2023-05-23T07:59:54;101949.31;;;8.49;51.86
45040;BME280;30778;53.574;7.770;2023-05-23T08:02:20;101942.19;;;8.63;50.72
45040;BME280;30778;53.574;7.770;2023-05-23T08:04:46;101956.56;;;8.28;51.12
45040;BME280;30778;53.574;7.770;2023-05-23T08:07:13;101950.88;;;8.62;50.21
45040;BME280;30778;53.574;7.770;2023-05-23T08:09:45;101944.59;;;9.31;49.36
45040;BME280;30778;53.574;7.770;2023-05-23T08:12:14;101961.06;;;9.33;49.40
45040;BME280;30778;53.574;7.770;2023-05-23T08:14:40;101952.63;;;9.67;48.77
45040;BME280;30778;53.574;7.770;2023-05-23T08:17:16;101957.84;;;9.19;48.81
45040;BME280;30778;53.574;7.770;2023-05-23T08:19:41;101950.66;;;9.32;47.97
45040;BME280;30778;53.574;7.770;2023-05-23T08:22:08;101969.91;;;8.72;48.83
45040;BME280;30778;53.574;7.770;2023-05-23T08:24:33;101968.47;;;9.07;48.37
45040;BME280;30778;53.574;7.770;2023-05-23T08:26:59;101954.16;;;9.31;47.66
45040;BME280;30778;53.574;7.770;2023-05-23T08:29:25;101967.06;;;9.38;47.29
45040;BME280;30778;53.574;7.770;2023-05-23T08:31:51;101961.81;;;9.42;47.21
45040;BME280;30778;53.574;7.770;2023-05-23T08:34:17;101969.41;;;9.54;47.52
45040;BME280;30778;53.574;7.770;2023-05-23T08:36:43;101961.53;;;10.04;46.53
45040;BME280;30778;53.574;7.770;2023-05-23T08:39:13;101964.28;;;10.38;45.03
45040;BME280;30778;53.574;7.770;2023-05-23T08:41:46;101962.59;;;9.95;46.17
45040;BME280;30778;53.574;7.770;2023-05-23T08:44:12;101977.13;;;10.08;46.50
45040;BME280;30778;53.574;7.770;2023-05-23T08:46:45;101972.38;;;9.84;45.01
45040;BME280;30778;53.574;7.770;2023-05-23T08:49:16;101976.72;;;10.28;44.95
45040;BME280;30778;53.574;7.770;2023-05-23T08:51:43;101989.56;;;9.94;44.95
45040;BME280;30778;53.574;7.770;2023-05-23T08:54:14;101983.97;;;10.12;44.80
45040;BME280;30778;53.574;7.770;2023-05-23T08:56:42;101985.19;;;10.38;44.84
45040;BME280;30778;53.574;7.770;2023-05-23T08:59:08;101994.03;;;9.90;45.37
45040;BME280;30778;53.574;7.770;2023-05-23T09:01:36;101993.75;;;10.85;43.63
45040;BME280;30778;53.574;7.770;2023-05-23T09:04:05;101992.19;;;10.76;44.01
45040;BME280;30778;53.574;7.770;2023-05-23T09:06:55;101989.19;;;10.12;44.50
45040;BME280;30778;53.574;7.770;2023-05-23T09:09:21;101998.97;;;10.46;44.57
45040;BME280;30778;53.574;7.770;2023-05-23T09:11:48;101997.13;;;10.08;45.78
45040;BME280;30778;53.574;7.770;2023-05-23T09:14:13;102008.84;;;10.32;45.31
45040;BME280;30778;53.574;7.770;2023-05-23T09:16:45;102010.91;;;10.16;45.68
45040;BME280;30778;53.574;7.770;2023-05-23T09:19:14;102016.63;;;10.35;44.06
45040;BME280;30778;53.574;7.770;2023-05-23T09:21:46;102012.34;;;10.73;43.21
45040;BME280;30778;53.574;7.770;2023-05-23T09:24:18;102006.09;;;10.78;43.38
45040;BME280;30778;53.574;7.770;2023-05-23T09:26:46;102016.81;;;11.07;42.98
45040;BME280;30778;53.574;7.770;2023-05-23T09:29:12;102022.75;;;10.32;44.65
45040;BME280;30778;53.574;7.770;2023-05-23T09:31:38;102024.13;;;10.08;44.98
45040;BME280;30778;53.574;7.770;2023-05-23T09:34:04;102026.22;;;10.34;45.25
45040;BME280;30778;53.574;7.770;2023-05-23T09:36:32;102030.41;;;9.98;44.49
45040;BME280;30778;53.574;7.770;2023-05-23T09:39:02;102020.75;;;10.45;44.40
45040;BME280;30778;53.574;7.770;2023-05-23T09:41:33;102030.53;;;11.15;42.77
45040;BME280;30778;53.574;7.770;2023-05-23T09:44:05;102040.66;;;11.30;41.56
45040;BME280;30778;53.574;7.770;2023-05-23T09:46:34;102032.28;;;11.16;42.24
45040;BME280;30778;53.574;7.770;2023-05-23T09:49:00;102035.78;;;10.76;42.06
45040;BME280;30778;53.574;7.770;2023-05-23T09:51:26;102041.84;;;10.78;42.50
45040;BME280;30778;53.574;7.770;2023-05-23T09:53:52;102035.41;;;10.94;42.40
45040;BME280;30778;53.574;7.770;2023-05-23T09:56:18;102045.16;;;10.02;42.96
45040;BME280;30778;53.574;7.770;2023-05-23T09:58:47;102043.59;;;9.92;44.08
45040;BME280;30778;53.574;7.770;2023-05-23T10:01:13;102036.72;;;10.31;43.74
45040;BME280;30778;53.574;7.770;2023-05-23T10:03:51;102047.66;;;10.50;43.06
45040;BME280;30778;53.574;7.770;2023-05-23T10:08:58;102044.06;;;10.96;42.94
45040;BME280;30778;53.574;7.770;2023-05-23T10:14:06;102053.16;;;10.78;43.61
45040;BME280;30778;53.574;7.770;2023-05-23T10:16:52;102049.19;;;11.38;42.12
45040;BME280;30778;53.574;7.770;2023-05-23T10:22:09;102037.75;;;11.05;40.19
45040;BME280;30778;53.574;7.770;2023-05-23T10:24:35;102048.34;;;10.58;42.01
45040;BME280;30778;53.574;7.770;2023-05-23T10:27:02;102060.06;;;10.84;42.01
45040;BME280;30778;53.574;7.770;2023-05-23T10:29:28;102060.59;;;10.98;41.96
45040;BME280;30778;53.574;7.770;2023-05-23T10:31:54;102067.81;;;10.87;42.72
45040;BME280;30778;53.574;7.770;2023-05-23T10:34:33;102061.00;;;11.89;40.84
45040;BME280;30778;53.574;7.770;2023-05-23T10:37:05;102064.47;;;12.22;39.40
45040;BME280;30778;53.574;7.770;2023-05-23T10:42:44;102054.81;;;11.92;40.71
45040;BME280;30778;53.574;7.770;2023-05-23T10:45:20;102059.03;;;12.28;40.34
45040;BME280;30778;53.574;7.770;2023-05-23T10:47:48;102059.63;;;11.40;41.92
45040;BME280;30778;53.574;7.770;2023-05-23T10:50:16;102064.94;;;12.05;41.62
45040;BME280;30778;53.574;7.770;2023-05-23T10:52:55;102063.94;;;12.41;41.09
45040;BME280;30778;53.574;7.770;2023-05-23T10:55:21;102070.91;;;12.42;40.00
45040;BME280;30778;53.574;7.770;2023-05-23T10:58:17;102071.84;;;12.39;40.41
45040;BME280;30778;53.574;7.770;2023-05-23T11:00:52;102068.47;;;12.65;38.81
45040;BME280;30778;53.574;7.770;2023-05-23T11:03:29;102061.31;;;12.72;38.58
45040;BME280;30778;53.574;7.770;2023-05-23T11:05:55;102069.50;;;12.60;39.12
45040;BME280;30778;53.574;7.770;2023-05-23T11:08:23;102069.06;;;12.75;39.53
45040;BME280;30778;53.574;7.770;2023-05-23T11:11:07;102071.28;;;12.89;40.11
45040;BME280;30778;53.574;7.770;2023-05-23T11:16:28;102076.06;;;13.04;36.93
45040;BME280;30778;53.574;7.770;2023-05-23T11:19:21;102077.50;;;13.15;36.46
45040;BME280;30778;53.574;7.770;2023-05-23T11:24:20;102083.28;;;13.79;36.23
45040;BME280;30778;53.574;7.770;2023-05-23T11:26:54;102080.53;;;13.82;37.01
45040;BME280;30778;53.574;7.770;2023-05-23T11:29:27;102086.78;;;13.51;36.99
45040;BME280;30778;53.574;7.770;2023-05-23T11:31:56;102094.06;;;13.17;37.57
45040;BME280;30778;53.574;7.770;2023-05-23T11:34:24;102080.34;;;13.07;38.48
45040;BME280;30778;53.574;7.770;2023-05-23T11:36:53;102081.50;;;12.37;39.58
45040;BME280;30778;53.574;7.770;2023-05-23T11:39:20;102084.38;;;12.59;39.38
45040;BME280;30778;53.574;7.770;2023-05-23T11:41:57;102093.91;;;12.62;39.32
45040;BME280;30778;53.574;7.770;2023-05-23T11:44:22;102082.59;;;12.60;39.23
45040;BME280;30778;53.574;7.770;2023-05-23T11:47:01;102097.00;;;11.82;40.39
45040;BME280;30778;53.574;7.770;2023-05-23T11:49:28;102098.47;;;12.25;39.29
45040;BME280;30778;53.574;7.770;2023-05-23T11:51:54;102091.72;;;12.15;39.87
45040;BME280;30778;53.574;7.770;2023-05-23T11:54:22;102090.91;;;12.13;39.97
45040;BME280;30778;53.574;7.770;2023-05-23T11:56:49;102095.69;;;11.99;39.48
45040;BME280;30778;53.574;7.770;2023-05-23T11:59:15;102103.97;;;11.82;39.31
45040;BME280;30778;53.574;7.770;2023-05-23T12:01:40;102101.06;;;12.88;38.88
45040;BME280;30778;53.574;7.770;2023-05-23T12:04:09;102096.28;;;13.29;37.38
45040;BME280;30778;53.574;7.770;2023-05-23T12:06:38;102101.16;;;12.85;38.02
45040;BME280;30778;53.574;7.770;2023-05-23T12:09:04;102101.66;;;13.52;37.24
45040;BME280;30778;53.574;7.770;2023-05-23T12:11:31;102107.66;;;13.01;36.96
45040;BME280;30778;53.574;7.770;2023-05-23T12:13:57;102106.31;;;12.88;37.60
45040;BME280;30778;53.574;7.770;2023-05-23T12:16:24;102120.69;;;12.43;38.55
45040;BME280;30778;53.574;7.770;2023-05-23T12:18:49;102117.28;;;12.40;39.02
45040;BME280;30778;53.574;7.770;2023-05-23T12:21:17;102125.06;;;12.43;40.21
45040;BME280;30778;53.574;7.770;2023-05-23T12:23:43;102121.06;;;12.29;40.23
45040;BME280;30778;53.574;7.770;2023-05-23T12:26:09;102128.13;;;11.20;42.62
45040;BME280;30778;53.574;7.770;2023-05-23T12:28:39;102130.25;;;11.41;41.62
45040;BME280;30778;53.574;7.770;2023-05-23T12:31:17;102115.50;;;11.37;42.16
45040;BME280;30778;53.574;7.770;2023-05-23T12:33:44;102127.84;;;12.04;40.72
45040;BME280;30778;53.574;7.770;2023-05-23T12:36:11;102124.41;;;12.02;40.30
45040;BME280;30778;53.574;7.770;2023-05-23T12:38:37;102136.09;;;11.88;40.85
45040;BME280;30778;53.574;7.770;2023-05-23T12:41:07;102130.44;;;11.70;41.17
45040;BME280;30778;53.574;7.770;2023-05-23T12:43:36;102131.50;;;12.31;41.00
45040;BME280;30778;53.574;7.770;2023-05-23T12:46:03;102121.91;;;12.93;38.21
45040;BME280;30778;53.574;7.770;2023-05-23T12:48:28;102129.44;;;12.11;39.41
45040;BME280;30778;53.574;7.770;2023-05-23T12:50:53;102134.25;;;11.58;40.24
45040;BME280;30778;53.574;7.770;2023-05-23T12:53:19;102128.72;;;12.37;38.65
45040;BME280;30778;53.574;7.770;2023-05-23T12:55:44;102131.97;;;12.47;38.77
45040;BME280;30778;53.574;7.770;2023-05-23T12:58:10;102131.91;;;11.44;40.61
45040;BME280;30778;53.574;7.770;2023-05-23T13:00:35;102137.78;;;12.25;38.90
45040;BME280;30778;53.574;7.770;2023-05-23T13:03:01;102148.16;;;12.28;39.01
45040;BME280;30778;53.574;7.770;2023-05-23T13:05:27;102149.72;;;11.67;38.77
45040;BME280;30778;53.574;7.770;2023-05-23T13:07:53;102148.56;;;12.79;37.43
45040;BME280;30778;53.574;7.770;2023-05-23T13:10:19;102154.44;;;13.17;37.39
45040;BME280;30778;53.574;7.770;2023-05-23T13:12:45;102157.09;;;13.15;37.55
45040;BME280;30778;53.574;7.770;2023-05-23T13:15:10;102157.31;;;12.78;36.84
45040;BME280;30778;53.574;7.770;2023-05-23T13:17:36;102151.72;;;12.27;38.20
45040;BME280;30778;53.574;7.770;2023-05-23T13:20:02;102151.44;;;12.37;38.46
45040;BME280;30778;53.574;7.770;2023-05-23T13:22:29;102155.09;;;13.23;37.41